Weather at Playa Baracoa Airport

Public forecast

Using degrees Celsius for public forecast. Weather courtesy of forecast.io.

Current aviation weather report (METAR) for Playa Baracoa Airport

Report is more than 6 hours old.

Retrieved 2022/02/19 11:50 UTC (6 months ago):

MUPB 191150Z VRB03KT 5000 FEW017 20/20 Q1020

Aviation forecast (TAF) for Playa Baracoa Airport

Forecast is more than 12 hours old.

Retrieved 2022/07/16 06:04 UTC (24 days ago):

TAF MUPB 160500Z 1606/1706 07006KT 9000 SCT020 BECMG 1614/1616 08012KT TEMPO 1620/1624 FEW018CB BECMG 1702/1704 06006KT